Aksa, Russia
Current Conditions -  °F | °C
As of 2:00 AM on Tuesday 21 Oct 2014 (Local Time) from UIAA Reporting Station
Clear Clear  
Wind Chill: -14°   Ceiling: Unl
Heat Index: -14°   Visibility: 6mi
Dew Point: -18°   Wind: 0mph
Humidity: 72%   Direction: NA
Pressure: 30.24"   Gusts: NA
Location:  50.27°N, 113.27°E
Report Text: UIAA 201700Z 00000MPS 9999 SKC M14/M18 Q1024 NOSIG RMK QFE70929820260
Loading
Personal Weather Stations






























Interactive Weather Map
Tropical Storm Tracking
New forecast layout! Learn more

10-Day Weather Forecast

Advertisements
Track Severe Weather on mobile